Time;durP1;ratioP1;P1;durP2;ratioP2;P2;SDS_P1;SDS_P2;PMS_P1;PMS_P2;Temp;Humidity;BMP_temperature;BMP_pressure;BME280_temperature;BME280_humidity;BME280_pressure;Samples;Min_cycle;Max_cycle;Signal;HPM_P1;HPM_P2
2021/11/25 00:00:44;;;;;;;24.50;14.23;;;3.60;85.70;;;;;;1905289;75;21004;-45
2021/11/25 00:03:13;;;;;;;26.52;14.28;;;3.60;85.40;;;;;;1905234;75;21085;-46
2021/11/25 00:05:43;;;;;;;29.27;14.47;;;3.60;85.30;;;;;;1905386;75;21073;-46
2021/11/25 00:08:13;;;;;;;27.05;14.10;;;3.60;85.50;;;;;;1905508;75;21023;-45
2021/11/25 00:10:43;;;;;;;26.90;15.28;;;3.60;85.10;;;;;;1905320;75;21003;-46
2021/11/25 00:13:13;;;;;;;27.67;14.30;;;3.60;85.60;;;;;;1905375;75;20996;-46
2021/11/25 00:15:42;;;;;;;32.85;14.87;;;3.60;85.80;;;;;;1905410;75;21043;-45
2021/11/25 00:18:12;;;;;;;26.62;13.70;;;3.60;85.50;;;;;;1905478;75;20980;-46
2021/11/25 00:20:41;;;;;;;26.02;14.30;;;3.60;84.80;;;;;;1905382;75;21011;-45
2021/11/25 00:23:11;;;;;;;28.67;14.30;;;3.50;85.10;;;;;;1905236;75;21024;-46
2021/11/25 00:25:41;;;;;;;28.42;15.72;;;3.40;84.30;;;;;;1905342;75;21043;-46
2021/11/25 00:28:10;;;;;;;28.83;14.93;;;3.30;84.90;;;;;;1905299;75;21081;-46
2021/11/25 00:30:41;;;;;;;34.38;16.10;;;3.30;85.70;;;;;;1905221;74;21048;-45
2021/11/25 00:33:10;;;;;;;31.48;16.42;;;3.30;85.90;;;;;;1905396;75;21101;-45
2021/11/25 00:35:41;;;;;;;27.48;14.45;;;3.30;85.30;;;;;;1905289;75;21028;-45
2021/11/25 00:38:11;;;;;;;35.95;16.87;;;3.30;85.20;;;;;;1905363;75;20979;-45
2021/11/25 00:40:40;;;;;;;29.82;16.42;;;3.30;85.80;;;;;;1905269;74;21016;-46
2021/11/25 00:43:10;;;;;;;32.73;16.35;;;3.40;86.10;;;;;;1905337;75;21070;-46
2021/11/25 00:45:39;;;;;;;35.10;17.15;;;3.40;86.00;;;;;;1905364;75;21279;-46
2021/11/25 00:48:09;;;;;;;34.55;17.05;;;3.50;86.00;;;;;;1905243;75;21032;-45
2021/11/25 00:50:38;;;;;;;30.27;16.07;;;3.50;85.80;;;;;;1905418;75;21023;-46
2021/11/25 00:53:09;;;;;;;29.82;15.25;;;3.50;85.50;;;;;;1920331;74;21050;-45
2021/11/25 00:55:39;;;;;;;36.03;17.85;;;3.50;85.60;;;;;;1924817;74;21457;-46
2021/11/25 00:58:09;;;;;;;28.55;16.23;;;3.50;85.70;;;;;;1924775;74;21042;-45
2021/11/25 01:00:39;;;;;;;34.40;16.48;;;3.40;85.30;;;;;;1924658;74;21084;-47
2021/11/25 01:03:09;;;;;;;31.77;16.70;;;3.40;85.60;;;;;;1924728;74;21026;-45
2021/11/25 01:05:38;;;;;;;31.23;16.95;;;3.50;85.90;;;;;;1924657;74;21038;-45
2021/11/25 01:08:07;;;;;;;35.25;16.10;;;3.50;85.90;;;;;;1924670;74;21069;-46
2021/11/25 01:10:37;;;;;;;33.88;17.05;;;3.50;85.80;;;;;;1924710;74;21011;-45
2021/11/25 01:13:06;;;;;;;33.60;16.32;;;3.50;85.80;;;;;;1924623;74;21070;-46
2021/11/25 01:15:37;;;;;;;30.52;14.68;;;3.50;85.70;;;;;;1924802;74;21011;-47
2021/11/25 01:18:08;;;;;;;29.30;15.80;;;3.50;85.60;;;;;;1924695;74;20975;-46
2021/11/25 01:20:39;;;;;;;30.60;14.63;;;3.50;85.80;;;;;;1923845;74;21100;-45
2021/11/25 01:23:11;;;;;;;27.73;14.87;;;3.50;85.90;;;;;;1924698;74;21010;-45
2021/11/25 01:25:40;;;;;;;31.35;17.07;;;3.50;86.10;;;;;;1924668;74;21517;-46
2021/11/25 01:28:12;;;;;;;30.00;15.72;;;3.60;86.00;;;;;;1924811;74;21441;-45
2021/11/25 01:30:45;;;;;;;28.32;14.95;;;3.60;86.00;;;;;;1924874;74;21094;-45
2021/11/25 01:33:15;;;;;;;31.27;15.20;;;3.60;86.00;;;;;;1924727;74;21502;-46
2021/11/25 01:35:44;;;;;;;31.00;17.05;;;3.60;86.10;;;;;;1924780;74;21003;-46
2021/11/25 01:38:15;;;;;;;29.92;15.68;;;3.60;85.90;;;;;;1924745;74;21109;-47
2021/11/25 01:40:46;;;;;;;29.32;14.75;;;3.60;85.40;;;;;;1924824;74;21003;-46
2021/11/25 01:43:15;;;;;;;31.75;16.35;;;3.60;85.60;;;;;;1924626;74;21002;-46
2021/11/25 01:45:44;;;;;;;30.27;15.98;;;3.60;85.90;;;;;;1924710;74;21006;-47
2021/11/25 01:48:13;;;;;;;33.38;17.42;;;3.60;86.10;;;;;;1924738;74;21011;-46
2021/11/25 01:50:44;;;;;;;28.95;15.72;;;3.70;86.00;;;;;;1924700;74;21076;-46
2021/11/25 01:53:15;;;;;;;30.65;16.57;;;3.70;85.50;;;;;;1924725;74;21054;-45
2021/11/25 01:55:44;;;;;;;34.83;18.60;;;3.70;86.00;;;;;;1924771;74;21046;-45
2021/11/25 01:58:13;;;;;;;28.92;16.27;;;3.70;86.00;;;;;;1924720;74;20998;-45
2021/11/25 02:00:51;;;;;;;27.90;15.38;;;3.70;85.60;;;;;;1924834;74;21050;-45
2021/11/25 02:03:23;;;;;;;28.90;15.68;;;3.60;84.30;;;;;;1924341;74;21051;-45
2021/11/25 02:05:52;;;;;;;26.90;15.50;;;3.40;85.10;;;;;;1924805;74;21006;-45
2021/11/25 02:08:22;;;;;;;35.55;18.95;;;3.30;84.20;;;;;;1924700;74;21027;-47
2021/11/25 02:10:53;;;;;;;32.78;17.77;;;3.20;83.90;;;;;;1924728;74;21068;-46
2021/11/25 02:13:23;;;;;;;34.30;18.87;;;3.00;84.10;;;;;;1924616;74;21003;-46
2021/11/25 02:15:53;;;;;;;38.85;16.70;;;2.80;85.80;;;;;;1924720;74;21092;-46
2021/11/25 02:18:24;;;;;;;28.57;15.85;;;2.80;85.90;;;;;;1924718;74;21068;-46
2021/11/25 02:20:56;;;;;;;31.97;17.00;;;2.80;85.50;;;;;;1924653;74;21026;-45
2021/11/25 02:23:26;;;;;;;28.95;17.45;;;2.70;85.90;;;;;;1924052;74;21108;-46
2021/11/25 02:25:56;;;;;;;32.20;16.65;;;2.70;85.40;;;;;;1924593;74;21006;-46
2021/11/25 02:28:28;;;;;;;32.30;15.70;;;2.50;84.50;;;;;;1924621;74;21002;-46
2021/11/25 02:30:57;;;;;;;36.60;16.73;;;2.50;85.50;;;;;;1924771;74;21034;-45
2021/11/25 02:33:27;;;;;;;32.65;16.65;;;2.40;86.00;;;;;;1924607;74;21023;-46
2021/11/25 02:35:57;;;;;;;36.90;16.48;;;2.40;86.20;;;;;;1924759;74;21047;-46
2021/11/25 02:38:26;;;;;;;30.50;16.20;;;2.40;86.60;;;;;;1924602;74;21092;-45
2021/11/25 02:40:57;;;;;;;34.40;17.27;;;2.50;86.30;;;;;;1924762;74;21039;-45
2021/11/25 02:43:29;;;;;;;38.80;17.40;;;2.50;86.40;;;;;;1924577;74;21057;-45
2021/11/25 02:46:04;;;;;;;33.08;17.37;;;2.50;86.40;;;;;;1924735;74;21018;-45
2021/11/25 02:48:44;;;;;;;41.68;17.73;;;2.50;86.50;;;;;;1924751;74;21007;-45
2021/11/25 02:51:16;;;;;;;34.88;17.02;;;2.50;86.00;;;;;;1924729;74;21081;-45
2021/11/25 02:53:47;;;;;;;36.55;17.02;;;2.50;86.20;;;;;;1923368;74;21480;-46
2021/11/25 02:56:22;;;;;;;37.30;17.15;;;2.50;86.30;;;;;;1924628;74;21050;-46
2021/11/25 02:58:53;;;;;;;41.25;19.27;;;2.50;86.60;;;;;;1924735;74;21139;-46
2021/11/25 03:01:36;;;;;;;40.40;16.25;;;2.50;86.40;;;;;;1924603;74;20999;-46
2021/11/25 03:04:07;;;;;;;37.73;17.42;;;2.50;86.20;;;;;;1924795;74;21022;-46
2021/11/25 03:06:37;;;;;;;38.92;18.50;;;2.60;86.50;;;;;;1924801;74;21034;-46
2021/11/25 03:09:07;;;;;;;33.63;16.97;;;2.70;87.20;;;;;;1924809;74;21085;-45
2021/11/25 03:11:37;;;;;;;36.05;18.30;;;2.70;86.60;;;;;;1924735;74;20995;-46
2021/11/25 03:14:09;;;;;;;32.50;15.93;;;2.80;85.80;;;;;;1924821;74;21002;-45
2021/11/25 03:16:38;;;;;;;33.58;17.20;;;2.70;85.70;;;;;;1924743;74;21449;-46
2021/11/25 03:19:07;;;;;;;37.55;17.77;;;2.60;86.70;;;;;;1924808;74;21022;-45
2021/11/25 03:21:37;;;;;;;37.17;17.67;;;2.60;86.30;;;;;;1924729;74;21084;-47
2021/11/25 03:24:06;;;;;;;40.88;17.57;;;2.70;86.70;;;;;;1924719;74;21007;-45
2021/11/25 03:26:36;;;;;;;36.68;16.70;;;2.70;86.70;;;;;;1924704;74;21010;-46
2021/11/25 03:29:05;;;;;;;33.85;16.00;;;2.70;86.10;;;;;;1924688;74;21062;-45
2021/11/25 03:31:35;;;;;;;39.92;17.95;;;2.70;86.20;;;;;;1924801;74;21035;-45
2021/11/25 03:34:05;;;;;;;40.30;17.25;;;2.70;86.50;;;;;;1924639;74;21002;-45
2021/11/25 03:36:34;;;;;;;36.65;19.42;;;2.70;86.60;;;;;;1924613;74;21078;-45
2021/11/25 03:39:04;;;;;;;38.38;17.55;;;2.70;86.20;;;;;;1924680;74;21614;-45
2021/11/25 03:41:34;;;;;;;37.45;19.25;;;2.70;86.20;;;;;;1924934;74;21011;-45
2021/11/25 03:44:04;;;;;;;39.53;18.20;;;2.70;86.10;;;;;;1924656;74;21007;-45
2021/11/25 03:46:35;;;;;;;30.10;15.00;;;2.60;86.30;;;;;;1924765;74;21027;-47
2021/11/25 03:49:05;;;;;;;42.03;17.10;;;2.60;86.40;;;;;;1924736;74;21092;-45
2021/11/25 03:51:34;;;;;;;35.13;15.35;;;2.60;86.30;;;;;;1924720;74;21011;-47
2021/11/25 03:54:04;;;;;;;40.30;16.60;;;2.50;86.20;;;;;;1924617;74;21046;-46
2021/11/25 03:56:33;;;;;;;43.48;18.52;;;2.50;86.20;;;;;;1924738;74;21104;-45
2021/11/25 03:59:02;;;;;;;39.75;18.62;;;2.50;87.00;;;;;;1924630;74;21001;-46
2021/11/25 04:01:31;;;;;;;38.92;18.35;;;2.60;87.40;;;;;;1924788;74;21127;-45
2021/11/25 04:04:01;;;;;;;38.35;17.98;;;2.70;87.00;;;;;;1924603;74;21081;-45
2021/11/25 04:06:30;;;;;;;33.02;16.32;;;2.80;86.90;;;;;;1924708;74;21023;-45
2021/11/25 04:08:59;;;;;;;41.45;18.23;;;2.80;86.00;;;;;;1924757;74;21007;-45
2021/11/25 04:11:30;;;;;;;36.70;17.05;;;2.80;86.50;;;;;;1924669;74;21105;-45
2021/11/25 04:14:03;;;;;;;35.88;15.75;;;2.90;86.10;;;;;;1924660;74;21022;-46
2021/11/25 04:16:30;;;;;;;38.30;16.97;;;2.80;86.00;;;;;;1924344;74;20983;-46
2021/11/25 04:19:00;;;;;;;37.10;17.80;;;2.80;85.70;;;;;;1924604;74;21010;-47
2021/11/25 04:21:29;;;;;;;38.48;18.23;;;2.70;85.90;;;;;;1924705;74;21015;-45
2021/11/25 04:23:59;;;;;;;34.05;19.10;;;2.70;86.20;;;;;;1924531;74;21097;-47
2021/11/25 04:26:28;;;;;;;34.30;16.85;;;2.70;86.10;;;;;;1924725;74;21073;-46
2021/11/25 04:28:58;;;;;;;32.55;16.82;;;2.70;85.50;;;;;;1924709;74;20995;-45
2021/11/25 04:37:01;;;;;;;31.62;15.08;;;2.60;87.40;;;;;;1924643;74;21132;-45
2021/11/25 04:39:31;;;;;;;32.63;16.15;;;2.70;86.70;;;;;;1924754;74;21076;-47
2021/11/25 04:42:01;;;;;;;38.85;17.82;;;2.70;86.90;;;;;;1924764;74;21085;-45
2021/11/25 04:44:31;;;;;;;31.52;16.50;;;2.80;86.90;;;;;;1924676;74;21003;-45
2021/11/25 04:47:01;;;;;;;31.82;16.45;;;2.90;86.40;;;;;;1924706;74;21042;-46
2021/11/25 04:49:30;;;;;;;35.70;17.42;;;2.80;86.30;;;;;;1924695;74;20998;-45
2021/11/25 04:52:00;;;;;;;36.98;18.77;;;2.80;85.20;;;;;;1924761;74;21499;-45
2021/11/25 04:54:30;;;;;;;34.35;16.95;;;2.70;86.50;;;;;;1919265;74;21027;-45
2021/11/25 04:56:59;;;;;;;40.50;18.42;;;2.70;86.20;;;;;;1892352;75;21047;-46
2021/11/25 04:59:29;;;;;;;41.00;18.35;;;2.70;85.70;;;;;;1905426;75;21097;-45
2021/11/25 05:01:58;;;;;;;37.88;18.10;;;2.60;86.40;;;;;;1905248;75;21095;-45
2021/11/25 05:04:27;;;;;;;42.45;19.42;;;2.60;85.70;;;;;;1905214;74;21012;-45
2021/11/25 05:06:56;;;;;;;43.23;18.70;;;2.50;86.20;;;;;;1905186;75;21109;-45
2021/11/25 05:09:26;;;;;;;37.30;15.50;;;2.50;86.30;;;;;;1905406;75;20983;-46
2021/11/25 05:11:55;;;;;;;43.00;17.40;;;2.50;85.50;;;;;;1905317;74;21069;-46
2021/11/25 05:14:25;;;;;;;35.70;18.80;;;2.40;85.50;;;;;;1905279;75;21121;-45
2021/11/25 05:16:54;;;;;;;41.70;18.25;;;2.30;85.50;;;;;;1905195;75;21065;-46
2021/11/25 05:19:23;;;;;;;88.78;54.33;;;2.30;85.90;;;;;;1905243;75;21073;-46
2021/11/25 05:21:53;;;;;;;84.70;54.85;;;2.30;86.10;;;;;;1905193;75;21023;-46
2021/11/25 05:24:22;;;;;;;46.05;21.48;;;2.30;86.20;;;;;;1905236;75;21104;-47
2021/11/25 05:26:53;;;;;;;41.45;17.73;;;2.30;86.20;;;;;;1905238;75;21046;-46
2021/11/25 05:29:23;;;;;;;24.30;14.63;;;2.30;86.10;;;;;;1905153;75;21027;-46
2021/11/25 05:31:52;;;;;;;36.70;18.23;;;2.30;85.90;;;;;;1905207;74;21027;-46
2021/11/25 05:34:22;;;;;;;33.73;18.17;;;2.30;85.20;;;;;;1905443;75;21070;-46
2021/11/25 05:36:51;;;;;;;24.87;15.05;;;2.30;84.90;;;;;;1905191;74;21058;-46
2021/11/25 05:39:20;;;;;;;28.87;15.15;;;2.20;84.60;;;;;;1905139;75;21122;-45
2021/11/25 05:41:50;;;;;;;33.18;15.43;;;2.10;84.20;;;;;;1905060;75;21011;-50
2021/11/25 05:44:19;;;;;;;32.25;17.27;;;2.10;84.80;;;;;;1905213;75;20995;-46
2021/11/25 05:46:49;;;;;;;27.82;16.50;;;2.00;84.70;;;;;;1905217;75;21196;-45
2021/11/25 05:49:18;;;;;;;33.75;17.98;;;2.00;84.90;;;;;;1905297;74;21028;-46
2021/11/25 05:51:47;;;;;;;29.65;16.45;;;2.00;84.90;;;;;;1905182;75;21039;-46
2021/11/25 05:54:17;;;;;;;19.25;12.43;;;2.00;85.00;;;;;;1905152;75;21466;-46
2021/11/25 05:56:46;;;;;;;31.77;16.07;;;2.10;84.70;;;;;;1923722;74;21116;-45
2021/11/25 05:59:16;;;;;;;17.57;9.85;;;2.10;84.70;;;;;;1924600;74;21023;-47
2021/11/25 06:01:45;;;;;;;30.57;15.40;;;2.20;85.20;;;;;;1924608;74;20986;-45
2021/11/25 06:04:14;;;;;;;37.50;22.58;;;2.20;84.40;;;;;;1924563;74;21007;-46
2021/11/25 06:06:44;;;;;;;21.33;11.25;;;2.20;84.40;;;;;;1924515;74;21011;-45
2021/11/25 06:09:13;;;;;;;29.75;16.30;;;2.20;84.10;;;;;;1924744;74;21023;-45
2021/11/25 06:11:42;;;;;;;16.52;9.38;;;2.30;84.20;;;;;;1924550;74;21054;-45
2021/11/25 06:14:11;;;;;;;24.67;14.83;;;2.30;84.20;;;;;;1924665;74;21062;-47
2021/11/25 06:16:41;;;;;;;20.32;10.35;;;2.30;83.00;;;;;;1924604;74;21038;-45
2021/11/25 06:19:10;;;;;;;28.05;14.50;;;2.20;82.70;;;;;;1924635;74;21019;-47
2021/11/25 06:21:39;;;;;;;30.30;15.93;;;2.20;83.80;;;;;;1924636;74;20999;-45
2021/11/25 06:24:10;;;;;;;29.37;15.23;;;2.10;83.70;;;;;;1924615;74;21084;-47
2021/11/25 06:26:44;;;;;;;30.15;15.55;;;2.10;83.80;;;;;;1924666;74;20999;-46
2021/11/25 06:29:13;;;;;;;26.97;16.15;;;2.10;84.80;;;;;;1924778;74;21086;-45
2021/11/25 06:31:42;;;;;;;36.20;18.98;;;2.20;84.40;;;;;;1924664;74;21054;-49
2021/11/25 06:34:11;;;;;;;27.45;15.40;;;2.20;83.90;;;;;;1924547;74;21042;-46
2021/11/25 06:36:41;;;;;;;24.57;11.93;;;2.30;84.50;;;;;;1924483;74;21136;-46
2021/11/25 06:39:11;;;;;;;31.20;15.65;;;2.40;84.20;;;;;;1924506;74;21096;-46
2021/11/25 06:41:41;;;;;;;20.50;12.93;;;2.40;83.50;;;;;;1924426;74;21032;-47
2021/11/25 06:44:10;;;;;;;23.47;14.87;;;2.40;83.30;;;;;;1924722;74;21011;-45
2021/11/25 06:46:39;;;;;;;19.42;12.68;;;2.40;83.70;;;;;;1924749;74;21433;-46
2021/11/25 06:49:09;;;;;;;24.72;15.20;;;2.40;82.90;;;;;;1924845;74;21042;-46
2021/11/25 06:51:41;;;;;;;28.32;13.58;;;2.40;83.00;;;;;;1924696;74;21050;-47
2021/11/25 06:54:09;;;;;;;29.98;15.45;;;2.40;83.20;;;;;;1924800;74;21018;-45
2021/11/25 06:56:38;;;;;;;35.05;17.73;;;2.50;83.70;;;;;;1924767;74;21050;-46
2021/11/25 06:59:08;;;;;;;27.25;13.80;;;2.60;84.50;;;;;;1924807;74;21026;-46
2021/11/25 07:01:38;;;;;;;27.90;14.18;;;2.70;83.20;;;;;;1924667;74;21083;-47
2021/11/25 07:04:07;;;;;;;22.52;10.45;;;2.80;83.90;;;;;;1924646;74;21096;-45
2021/11/25 07:06:37;;;;;;;19.90;11.78;;;2.90;82.70;;;;;;1924614;74;21080;-46
2021/11/25 07:09:06;;;;;;;17.73;11.45;;;2.90;82.20;;;;;;1924653;74;21080;-45
2021/11/25 07:11:35;;;;;;;23.60;13.25;;;2.90;82.30;;;;;;1924645;74;21077;-46
2021/11/25 07:14:05;;;;;;;26.68;14.25;;;2.80;80.80;;;;;;1924661;74;21023;-46
2021/11/25 07:16:34;;;;;;;28.80;15.50;;;2.80;81.70;;;;;;1924602;74;21010;-46
2021/11/25 07:19:04;;;;;;;25.17;15.60;;;2.80;83.00;;;;;;1924620;74;21031;-46
2021/11/25 07:21:34;;;;;;;27.60;14.98;;;2.90;83.00;;;;;;1924643;74;21018;-45
2021/11/25 07:24:03;;;;;;;12.53;9.75;;;3.00;82.50;;;;;;1924532;74;21054;-45
2021/11/25 07:26:33;;;;;;;25.02;15.35;;;3.00;80.70;;;;;;1924446;74;21082;-46
2021/11/25 07:29:02;;;;;;;27.98;14.73;;;3.00;82.00;;;;;;1924601;74;21030;-46
2021/11/25 07:31:33;;;;;;;24.12;13.65;;;3.10;81.50;;;;;;1924507;74;21092;-46
2021/11/25 07:34:02;;;;;;;17.62;11.38;;;3.10;81.20;;;;;;1924658;74;21039;-44
2021/11/25 07:36:31;;;;;;;19.40;13.08;;;3.20;81.40;;;;;;1924407;74;21084;-45
2021/11/25 07:39:01;;;;;;;20.60;13.30;;;3.20;81.30;;;;;;1924572;74;21026;-45
2021/11/25 07:41:42;;;;;;;23.60;14.13;;;3.20;81.40;;;;;;1924428;74;21030;-49
2021/11/25 07:44:13;;;;;;;30.40;17.35;;;3.30;80.70;;;;;;1924199;74;21106;-44
2021/11/25 07:46:44;;;;;;;27.58;14.65;;;3.30;79.00;;;;;;1924500;74;21073;-45
2021/11/25 07:49:13;;;;;;;21.23;12.73;;;3.30;80.80;;;;;;1924529;74;21096;-44
2021/11/25 07:51:43;;;;;;;20.37;12.10;;;3.40;80.50;;;;;;1924616;74;21077;-47
2021/11/25 07:54:13;;;;;;;19.67;13.30;;;3.50;80.50;;;;;;1924558;74;21140;-46
2021/11/25 07:56:43;;;;;;;15.98;9.50;;;3.50;79.70;;;;;;1916790;74;21122;-45
2021/11/25 07:59:13;;;;;;;23.77;14.65;;;3.50;78.50;;;;;;1905250;75;21132;-45
2021/11/25 08:01:42;;;;;;;27.50;13.85;;;3.50;79.70;;;;;;1905294;75;21028;-45
2021/11/25 08:04:11;;;;;;;21.93;12.40;;;3.50;78.90;;;;;;1905364;75;21079;-45
2021/11/25 08:06:41;;;;;;;22.42;13.00;;;3.50;78.80;;;;;;1905202;75;21101;-45
2021/11/25 08:09:11;;;;;;;29.52;14.60;;;3.50;79.20;;;;;;1905099;74;21023;-46
2021/11/25 08:11:40;;;;;;;21.00;12.47;;;3.60;79.20;;;;;;1905200;75;21069;-45
2021/11/25 08:14:10;;;;;;;23.15;14.23;;;3.60;79.60;;;;;;1905276;75;21105;-45
2021/11/25 08:16:39;;;;;;;26.12;14.30;;;3.60;79.40;;;;;;1905202;75;21003;-44
2021/11/25 08:19:08;;;;;;;31.55;18.15;;;3.70;79.50;;;;;;1905296;75;21027;-44
2021/11/25 08:21:37;;;;;;;18.92;13.35;;;3.70;79.30;;;;;;1905324;75;21410;-48
2021/11/25 08:24:07;;;;;;;18.05;10.23;;;3.80;79.10;;;;;;1905183;75;21081;-44
2021/11/25 08:26:36;;;;;;;23.42;14.75;;;3.80;78.60;;;;;;1905284;75;21122;-45
2021/11/25 08:29:06;;;;;;;26.10;14.50;;;3.80;78.70;;;;;;1905247;75;21068;-46
2021/11/25 08:31:35;;;;;;;16.35;10.15;;;3.80;79.30;;;;;;1905312;75;21069;-45
2021/11/25 08:34:04;;;;;;;27.40;16.37;;;3.80;77.70;;;;;;1905352;75;21453;-45
2021/11/25 08:36:34;;;;;;;22.55;13.65;;;3.90;79.20;;;;;;1905269;75;21062;-46
2021/11/25 08:39:04;;;;;;;26.57;16.20;;;3.90;77.20;;;;;;1905229;75;21058;-45
2021/11/25 08:41:33;;;;;;;21.52;12.37;;;3.90;78.00;;;;;;1905292;75;21043;-45
2021/11/25 08:44:02;;;;;;;27.37;15.98;;;3.90;78.20;;;;;;1905289;75;21027;-45
2021/11/25 08:46:32;;;;;;;25.72;15.05;;;3.90;78.70;;;;;;1903928;75;21021;-45
2021/11/25 08:49:02;;;;;;;24.32;14.87;;;4.00;77.80;;;;;;1904657;75;21008;-44
2021/11/25 08:51:31;;;;;;;26.25;15.20;;;4.00;77.40;;;;;;1904642;75;21023;-43
2021/11/25 08:54:01;;;;;;;28.05;17.05;;;4.00;77.20;;;;;;1904597;75;21023;-46
2021/11/25 08:56:31;;;;;;;27.98;15.15;;;4.00;77.10;;;;;;1904532;74;21023;-44
2021/11/25 08:59:00;;;;;;;19.37;10.85;;;4.00;77.80;;;;;;1904695;75;21117;-43
2021/11/25 09:01:30;;;;;;;19.77;11.40;;;4.00;76.30;;;;;;1904499;75;21048;-44
2021/11/25 09:03:59;;;;;;;20.52;11.80;;;4.10;77.10;;;;;;1904736;75;20999;-45
2021/11/25 09:06:29;;;;;;;26.35;15.75;;;4.00;77.60;;;;;;1901602;74;21081;-44
2021/11/25 09:08:59;;;;;;;28.27;15.23;;;4.00;76.80;;;;;;1901280;75;21097;-44
2021/11/25 09:11:29;;;;;;;17.98;9.15;;;4.10;77.20;;;;;;1887651;75;21062;-44
2021/11/25 09:13:59;;;;;;;22.20;13.70;;;4.10;75.80;;;;;;1894514;75;21076;-45
2021/11/25 09:16:28;;;;;;;30.68;15.98;;;4.10;77.00;;;;;;1894870;75;21134;-44
2021/11/25 09:18:58;;;;;;;28.67;16.50;;;4.20;76.60;;;;;;1897219;74;21055;-46
2021/11/25 09:21:30;;;;;;;20.20;13.30;;;4.20;76.70;;;;;;1897203;73;21092;-44
2021/11/25 09:24:00;;;;;;;17.98;9.90;;;4.20;76.40;;;;;;1888424;74;21493;-46
2021/11/25 09:26:30;;;;;;;27.67;14.60;;;4.20;76.00;;;;;;1908735;74;21050;-45
2021/11/25 09:29:01;;;;;;;18.00;10.78;;;4.30;76.50;;;;;;1886396;75;21043;-48
2021/11/25 09:31:32;;;;;;;27.70;15.45;;;4.30;75.80;;;;;;1905813;74;21093;-45
2021/11/25 09:34:02;;;;;;;24.27;15.45;;;4.30;76.30;;;;;;1936247;74;21074;-47
2021/11/25 09:36:34;;;;;;;22.73;14.25;;;4.40;75.50;;;;;;1947879;73;21143;-45
2021/11/25 09:39:06;;;;;;;22.50;14.13;;;4.40;75.30;;;;;;1947817;73;21042;-47
2021/11/25 09:41:35;;;;;;;31.35;13.05;;;4.40;74.80;;;;;;1947881;74;21054;-44
2021/11/25 09:44:05;;;;;;;21.07;13.43;;;4.40;75.80;;;;;;1897888;74;21070;-44
2021/11/25 09:46:43;;;;;;;18.48;11.85;;;4.40;75.30;;;;;;1893446;74;21130;-44
2021/11/25 09:49:15;;;;;;;17.77;10.05;;;4.40;74.80;;;;;;1871438;75;21062;-46
2021/11/25 09:51:45;;;;;;;24.85;13.10;;;4.40;74.90;;;;;;1872091;77;21071;-45
2021/11/25 09:54:14;;;;;;;21.07;11.70;;;4.50;75.20;;;;;;1897183;75;21097;-48
2021/11/25 09:56:43;;;;;;;17.37;10.38;;;4.60;74.70;;;;;;1877367;75;21100;-45
2021/11/25 09:59:13;;;;;;;15.90;9.13;;;4.60;73.90;;;;;;1880653;76;21056;-47
2021/11/25 10:01:43;;;;;;;16.52;8.75;;;4.60;73.10;;;;;;1891266;75;21125;-46
2021/11/25 10:04:13;;;;;;;23.10;13.03;;;4.60;73.10;;;;;;1897398;75;21097;-44
2021/11/25 10:06:54;;;;;;;20.17;11.18;;;4.60;74.60;;;;;;1885476;75;21083;-48
2021/11/25 10:09:34;;;;;;;21.50;11.88;;;4.60;74.50;;;;;;1877485;76;21034;-45
2021/11/25 10:12:12;;;;;;;22.27;13.48;;;4.70;73.80;;;;;;1877004;76;21630;-46
2021/11/25 10:14:42;;;;;;;12.15;8.35;;;4.70;74.30;;;;;;1858879;76;21096;-46
2021/11/25 10:17:11;;;;;;;26.40;14.68;;;4.80;72.90;;;;;;1877403;76;21105;-49
2021/11/25 10:19:40;;;;;;;24.37;11.75;;;4.90;73.80;;;;;;1877625;76;21058;-45
2021/11/25 10:22:11;;;;;;;15.38;9.68;;;4.90;74.20;;;;;;1877408;76;21172;-45
2021/11/25 10:24:43;;;;;;;23.73;12.28;;;4.90;71.70;;;;;;1877668;76;21135;-45
2021/11/25 10:27:25;;;;;;;22.05;12.13;;;4.90;73.60;;;;;;1877550;76;21042;-47
2021/11/25 10:30:16;;;;;;;31.65;17.12;;;4.90;72.90;;;;;;1877485;76;21096;-45
2021/11/25 10:32:59;;;;;;;17.10;9.40;;;5.00;72.40;;;;;;1877537;76;21088;-45
2021/11/25 10:35:43;;;;;;;15.15;10.23;;;4.90;71.70;;;;;;1877473;76;21120;-45
2021/11/25 10:40:37;;;;;;;19.17;9.65;;;5.00;69.60;;;;;;1877493;76;21646;-45
2021/11/25 10:43:24;;;;;;;15.78;9.33;;;5.00;70.50;;;;;;1877408;76;21034;-45
2021/11/25 10:45:54;;;;;;;15.10;7.95;;;5.00;68.40;;;;;;1877551;76;21093;-44
2021/11/25 10:48:40;;;;;;;11.60;7.72;;;5.00;69.00;;;;;;1877489;76;21084;-46
2021/11/25 10:51:32;;;;;;;13.28;8.63;;;5.00;68.70;;;;;;1877591;76;21073;-48
2021/11/25 10:54:13;;;;;;;23.57;11.30;;;5.00;68.30;;;;;;1877348;76;21209;-46
2021/11/25 10:56:56;;;;;;;12.82;8.15;;;5.00;71.00;;;;;;1877492;76;21038;-49
2021/11/25 10:59:40;;;;;;;22.30;12.60;;;5.00;69.70;;;;;;1876354;75;21157;-45
2021/11/25 11:02:21;;;;;;;14.68;8.08;;;5.10;70.10;;;;;;1889752;75;21188;-45
2021/11/25 11:04:51;;;;;;;18.50;9.28;;;5.10;68.60;;;;;;1881790;75;21047;-45
2021/11/25 11:07:38;;;;;;;14.23;8.03;;;5.10;68.30;;;;;;1889570;75;21128;-46
2021/11/25 11:10:28;;;;;;;15.13;7.17;;;5.10;68.10;;;;;;1872251;75;21082;-44
2021/11/25 11:15:34;;;;;;;16.20;10.13;;;5.10;67.70;;;;;;1887434;74;20998;-46
2021/11/25 11:20:44;;;;;;;11.53;7.83;;;5.10;70.70;;;;;;1876076;75;21136;-44
2021/11/25 11:23:12;;;;;;;15.32;9.60;;;5.10;70.20;;;;;;1876896;74;21129;-47
2021/11/25 11:25:45;;;;;;;14.33;9.20;;;5.20;70.60;;;;;;1906753;74;21478;-45
2021/11/25 11:28:15;;;;;;;12.25;6.08;;;5.20;70.60;;;;;;1878939;74;21148;-46
2021/11/25 11:30:46;;;;;;;16.85;8.28;;;5.20;69.00;;;;;;1874140;75;21138;-44
2021/11/25 11:33:16;;;;;;;13.05;9.03;;;5.20;69.90;;;;;;1883423;75;21048;-45
2021/11/25 11:35:47;;;;;;;9.93;6.72;;;5.20;68.80;;;;;;1872933;75;21011;-48
2021/11/25 11:38:18;;;;;;;10.45;7.47;;;5.20;68.30;;;;;;1878939;75;21113;-45
2021/11/25 11:41:01;;;;;;;14.15;8.70;;;5.20;69.00;;;;;;1894773;74;21089;-44
2021/11/25 11:43:32;;;;;;;14.35;7.62;;;5.20;70.20;;;;;;1894359;75;21051;-44
2021/11/25 11:46:02;;;;;;;10.38;6.65;;;5.30;69.70;;;;;;1892365;75;21071;-44
2021/11/25 11:48:32;;;;;;;11.12;6.30;;;5.30;69.50;;;;;;1900832;75;21124;-45
2021/11/25 11:51:03;;;;;;;13.83;8.00;;;5.30;69.50;;;;;;1890463;74;21110;-44
2021/11/25 11:53:33;;;;;;;44.67;27.48;;;;;;;;;;1890532;75;21568;-45
2021/11/25 11:56:03;;;;;;;15.10;9.25;;;;;;;;;;1884747;75;21348;-46
2021/11/25 11:58:36;;;;;;;15.85;9.73;;;;;;;;;;1886959;75;21095;-45
2021/11/25 12:01:09;;;;;;;14.20;8.75;;;;;;;;;;1883668;75;21091;-44
2021/11/25 12:03:40;;;;;;;10.03;6.55;;;;;;;;;;1888645;75;21066;-44
2021/11/25 12:06:09;;;;;;;14.30;7.47;;;;;;;;;;1885543;74;21066;-46
2021/11/25 12:08:39;;;;;;;11.97;7.42;;;;;;;;;;1876190;75;21564;-45
2021/11/25 12:11:08;;;;;;;16.85;11.43;;;;;;;;;;1887700;75;21102;-46
2021/11/25 12:13:41;;;;;;;18.42;8.53;;;;;;;;;;1882545;75;21088;-46
2021/11/25 12:16:20;;;;;;;16.87;12.05;;;;;;;;;;1886964;76;21077;-46
2021/11/25 12:18:50;;;;;;;16.62;9.95;;;;;;;;;;1886931;75;21079;-45
2021/11/25 12:21:20;;;;;;;12.60;8.65;;;;;;;;;;1887102;76;21007;-45
2021/11/25 12:23:49;;;;;;;16.27;8.40;;;;;;;;;;1885305;76;21031;-46
2021/11/25 12:26:17;;;;;;;14.40;8.53;;;;;;;;;;1928559;74;21097;-46
2021/11/25 12:28:46;;;;;;;13.48;9.00;;;;;;;;;;1935107;74;21035;-45
2021/11/25 12:33:49;;;;;;;11.68;8.15;;;;;;;;;;1935296;74;21551;-47
2021/11/25 12:36:34;;;;;;;12.50;5.95;;;;;;;;;;1934138;74;21501;-47
2021/11/25 12:39:04;;;;;;;17.77;10.98;;;;;;;;;;1935430;74;21067;-45
2021/11/25 12:41:34;;;;;;;15.48;8.30;;;;;;;;;;1933929;74;21090;-48
2021/11/25 12:44:03;;;;;;;23.12;12.07;;;;;;;;;;1934518;74;21136;-46
2021/11/25 12:46:32;;;;;;;15.30;10.08;;;;;;;;;;1935207;74;21086;-47
2021/11/25 12:49:01;;;;;;;15.40;9.20;;;;;;;;;;1935419;74;21040;-47
2021/11/25 12:51:31;;;;;;;18.52;10.55;;;;;;;;;;1910664;74;21034;-47
2021/11/25 12:54:01;;;;;;;17.55;10.78;;;;;;;;;;1872658;77;21493;-47
2021/11/25 12:56:34;;;;;;;16.73;8.80;;;;;;;;;;1872085;75;21027;-46
2021/11/25 12:59:04;;;;;;;19.40;9.60;;;;;;;;;;1872736;76;21051;-46
2021/11/25 13:01:34;;;;;;;18.40;10.58;;;;;;;;;;1872804;77;21047;-47
2021/11/25 13:04:04;;;;;;;15.93;10.00;;;;;;;;;;1872734;76;20995;-47
2021/11/25 13:06:34;;;;;;;20.60;11.80;;;;;;;;;;1872820;76;21080;-49
2021/11/25 13:09:06;;;;;;;21.15;11.90;;;;;;;;;;1872697;77;21011;-47
2021/11/25 13:11:37;;;;;;;20.00;11.00;;;;;;;;;;1872035;76;21059;-46
2021/11/25 13:14:07;;;;;;;19.52;10.98;;;;;;;;;;1872736;77;21047;-45
2021/11/25 13:16:53;;;;;;;21.55;9.55;;;;;;;;;;1872620;77;21035;-46
2021/11/25 13:19:23;;;;;;;18.20;10.32;;;;;;;;;;1872778;75;21121;-46
2021/11/25 13:21:52;;;;;;;16.80;10.18;;;;;;;;;;1872728;77;21085;-46